createdAt,value
2022-07-26T00:00:13.560Z,3.70
2022-07-26T00:03:00.534Z,3.80
2022-07-26T00:05:27.416Z,4.28
2022-07-26T00:08:10.584Z,4.03
2022-07-26T00:10:47.193Z,4.10
2022-07-26T00:13:16.741Z,4.47
2022-07-26T00:15:44.369Z,4.93
2022-07-26T00:18:12.008Z,4.25
2022-07-26T00:20:39.815Z,4.95
2022-07-26T00:23:08.509Z,5.00
2022-07-26T00:25:36.049Z,4.07
2022-07-26T00:28:03.103Z,4.40
2022-07-26T00:30:29.933Z,3.83
2022-07-26T00:32:56.845Z,4.00
2022-07-26T00:35:24.147Z,4.93
2022-07-26T00:37:51.315Z,4.00
2022-07-26T00:40:18.194Z,3.47
2022-07-26T00:42:45.901Z,3.80
2022-07-26T00:45:13.841Z,4.10
2022-07-26T00:47:40.793Z,4.63
2022-07-26T00:50:12.065Z,4.25
2022-07-26T00:52:38.919Z,3.90
2022-07-26T00:55:07.584Z,4.25
2022-07-26T00:57:35.780Z,3.95
2022-07-26T01:00:05.831Z,3.80
2022-07-26T01:02:32.767Z,3.90
2022-07-26T01:05:00.015Z,4.07
2022-07-26T01:07:26.812Z,4.38
2022-07-26T01:09:53.668Z,3.80
2022-07-26T01:12:20.702Z,3.75
2022-07-26T01:14:47.661Z,4.00
2022-07-26T01:17:15.402Z,4.60
2022-07-26T01:19:42.829Z,4.20
2022-07-26T01:22:14.140Z,3.65
2022-07-26T01:24:41.490Z,3.78
2022-07-26T01:27:08.672Z,4.30
2022-07-26T01:29:36.380Z,4.45
2022-07-26T01:32:05.058Z,3.95
2022-07-26T01:34:32.412Z,3.72
2022-07-26T01:36:59.307Z,4.20
2022-07-26T01:39:26.761Z,4.45
2022-07-26T01:41:54.336Z,3.55
2022-07-26T01:44:22.938Z,4.15
2022-07-26T01:46:50.010Z,4.25
2022-07-26T01:49:17.132Z,4.20
2022-07-26T01:51:43.925Z,4.10
2022-07-26T01:54:11.038Z,4.38
2022-07-26T01:56:38.315Z,3.78
2022-07-26T01:59:05.195Z,4.32
2022-07-26T02:01:38.461Z,4.00
2022-07-26T02:04:08.675Z,4.32
2022-07-26T02:06:35.995Z,4.68
2022-07-26T02:09:06.461Z,4.57
2022-07-26T02:11:34.684Z,4.03
2022-07-26T02:14:03.208Z,4.10
2022-07-26T02:16:29.950Z,3.97
2022-07-26T02:18:56.900Z,4.13
2022-07-26T02:21:23.640Z,4.05
2022-07-26T02:23:50.377Z,3.53
2022-07-26T02:26:17.306Z,4.43
2022-07-26T02:28:44.057Z,4.13
2022-07-26T02:31:10.824Z,3.92
2022-07-26T02:33:38.757Z,4.00
2022-07-26T02:36:05.586Z,4.63
2022-07-26T02:38:32.318Z,4.55
2022-07-26T02:40:59.275Z,4.60
2022-07-26T02:43:26.907Z,4.15
2022-07-26T02:46:01.592Z,4.82
2022-07-26T02:48:30.331Z,4.78
2022-07-26T02:50:57.254Z,4.07
2022-07-26T02:53:24.007Z,5.50
2022-07-26T02:55:50.964Z,4.38
2022-07-26T02:58:17.823Z,4.00
2022-07-26T03:00:44.587Z,3.85
2022-07-26T03:03:14.239Z,3.70
2022-07-26T03:05:41.592Z,4.20
2022-07-26T03:08:08.573Z,4.20
2022-07-26T03:10:35.572Z,4.03
2022-07-26T03:13:02.342Z,4.15
2022-07-26T03:15:29.214Z,4.05
2022-07-26T03:17:56.298Z,4.18
2022-07-26T03:20:23.257Z,5.10
2022-07-26T03:22:50.056Z,6.70
2022-07-26T03:25:17.312Z,5.68
2022-07-26T03:27:44.057Z,5.90
2022-07-26T03:30:11.872Z,6.22
2022-07-26T03:32:38.899Z,5.72
2022-07-26T03:35:06.859Z,5.82
2022-07-26T03:37:45.009Z,6.32
2022-07-26T03:40:17.483Z,5.47
2022-07-26T03:42:47.997Z,6.38
2022-07-26T03:45:15.988Z,4.22
2022-07-26T03:47:43.374Z,4.68
2022-07-26T03:50:11.247Z,4.90
2022-07-26T03:52:38.274Z,4.85
2022-07-26T03:55:25.972Z,5.30
2022-07-26T03:57:53.044Z,7.00
2022-07-26T04:00:19.812Z,4.82
2022-07-26T04:02:46.649Z,4.85
2022-07-26T04:05:13.702Z,4.70
2022-07-26T04:07:52.848Z,5.13
2022-07-26T04:10:22.117Z,4.90
2022-07-26T04:12:50.282Z,5.55
2022-07-26T04:15:19.028Z,3.95
2022-07-26T04:17:48.301Z,4.78
2022-07-26T04:20:16.101Z,4.05
2022-07-26T04:22:43.569Z,4.70
2022-07-26T04:25:10.790Z,4.45
2022-07-26T04:27:38.167Z,4.00
2022-07-26T04:30:12.362Z,4.70
2022-07-26T04:32:41.721Z,4.47
2022-07-26T04:35:08.970Z,4.50
2022-07-26T04:37:42.844Z,4.35
2022-07-26T04:40:13.076Z,4.45
2022-07-26T04:42:40.026Z,4.38
2022-07-26T04:45:08.728Z,5.13
2022-07-26T04:47:36.376Z,4.97
2022-07-26T04:50:04.296Z,4.50
2022-07-26T04:52:31.056Z,5.35
2022-07-26T04:54:59.568Z,4.75
2022-07-26T04:57:26.334Z,4.97
2022-07-26T05:00:09.854Z,4.78
2022-07-26T05:02:40.661Z,4.32
2022-07-26T05:05:08.406Z,4.15
2022-07-26T05:07:42.902Z,4.13
2022-07-26T05:10:10.336Z,4.13
2022-07-26T05:12:37.356Z,4.53
2022-07-26T05:15:05.539Z,3.90
2022-07-26T05:17:41.629Z,4.07
2022-07-26T05:20:11.777Z,4.43
2022-07-26T05:22:38.947Z,3.65
2022-07-26T05:25:07.076Z,3.83
2022-07-26T05:27:33.866Z,4.03
2022-07-26T05:30:00.930Z,4.35
2022-07-26T05:32:30.750Z,4.78
2022-07-26T05:34:57.526Z,4.32
2022-07-26T05:37:24.289Z,4.57
2022-07-26T05:39:51.252Z,4.10
2022-07-26T05:42:18.063Z,4.13
2022-07-26T05:44:44.818Z,5.28
2022-07-26T05:47:12.193Z,4.75
2022-07-26T05:49:40.507Z,3.83
2022-07-26T05:52:08.927Z,3.97
2022-07-26T05:54:36.282Z,4.07
2022-07-26T05:57:03.452Z,4.10
2022-07-26T05:59:30.563Z,4.43
2022-07-26T06:01:57.635Z,4.03
2022-07-26T06:04:26.604Z,4.00
2022-07-26T06:06:54.871Z,4.35
2022-07-26T06:09:24.738Z,4.65
2022-07-26T06:11:51.618Z,4.50
2022-07-26T06:14:19.083Z,5.05
2022-07-26T06:16:49.388Z,4.57
2022-07-26T06:19:16.575Z,4.82
2022-07-26T06:21:45.650Z,5.55
2022-07-26T06:24:13.042Z,5.82
2022-07-26T06:26:40.431Z,5.57
2022-07-26T06:29:07.371Z,5.82
2022-07-26T06:31:34.656Z,6.10
2022-07-26T06:34:01.905Z,5.57
2022-07-26T06:36:30.842Z,5.75
2022-07-26T06:38:58.773Z,5.93
2022-07-26T06:41:26.157Z,6.57
2022-07-26T06:43:53.305Z,5.68
2022-07-26T06:46:21.718Z,5.85
2022-07-26T06:48:53.084Z,6.07
2022-07-26T06:51:24.013Z,6.28
2022-07-26T06:53:50.800Z,5.63
2022-07-26T06:56:18.836Z,5.93
2022-07-26T06:58:46.518Z,5.38
2022-07-26T07:01:13.699Z,5.85
2022-07-26T07:04:00.572Z,5.68
2022-07-26T07:06:27.364Z,6.05
2022-07-26T07:08:54.102Z,5.82
2022-07-26T07:11:21.437Z,5.88
2022-07-26T07:13:48.888Z,6.10
2022-07-26T07:16:15.727Z,6.45
2022-07-26T07:18:42.762Z,5.03
2022-07-26T07:21:09.500Z,5.80
2022-07-26T07:23:36.298Z,5.60
2022-07-26T07:26:03.353Z,5.97
2022-07-26T07:28:30.216Z,5.75
2022-07-26T07:30:56.970Z,5.13
2022-07-26T07:33:25.807Z,5.70
2022-07-26T07:35:53.802Z,6.13
2022-07-26T07:38:22.448Z,6.32
2022-07-26T07:40:49.830Z,5.65
2022-07-26T07:43:16.638Z,5.32
2022-07-26T07:45:43.969Z,5.00
2022-07-26T07:48:15.462Z,4.80
2022-07-26T07:50:42.204Z,4.72
2022-07-26T07:53:08.976Z,4.95
2022-07-26T07:55:40.918Z,3.95
2022-07-26T07:58:10.659Z,4.40
2022-07-26T08:00:37.772Z,4.82
2022-07-26T08:03:05.359Z,5.03
2022-07-26T08:05:34.906Z,4.80
2022-07-26T08:08:08.195Z,4.55
2022-07-26T08:10:35.344Z,4.60
2022-07-26T08:13:08.972Z,4.70
2022-07-26T08:15:36.808Z,4.68
2022-07-26T08:18:06.047Z,4.63
2022-07-26T08:20:38.220Z,4.40
2022-07-26T08:23:07.341Z,4.25
2022-07-26T08:25:34.105Z,4.43
2022-07-26T08:28:03.800Z,4.25
2022-07-26T08:30:33.735Z,4.43
2022-07-26T08:33:01.147Z,4.65
2022-07-26T08:35:29.608Z,3.67
2022-07-26T08:37:57.867Z,4.70
2022-07-26T08:40:24.638Z,4.10
2022-07-26T08:42:55.963Z,4.25
2022-07-26T08:45:23.744Z,6.10
2022-07-26T08:48:16.131Z,3.92
2022-07-26T08:50:39.685Z,4.90
2022-07-26T08:53:09.287Z,5.07
2022-07-26T08:56:04.273Z,5.13
2022-07-26T08:58:23.980Z,4.75
2022-07-26T09:01:12.875Z,4.97
2022-07-26T09:03:41.094Z,5.00
2022-07-26T09:06:17.397Z,5.25
2022-07-26T09:08:47.095Z,5.05
2022-07-26T09:11:29.979Z,5.22
2022-07-26T09:14:06.555Z,4.90
2022-07-26T09:16:38.767Z,5.10
2022-07-26T09:19:21.473Z,4.93
2022-07-26T09:21:48.587Z,5.78
2022-07-26T09:24:43.779Z,5.30
2022-07-26T09:27:15.802Z,5.20
2022-07-26T09:29:48.085Z,4.60
2022-07-26T09:32:20.767Z,5.83
2022-07-26T09:34:58.166Z,5.70
2022-07-26T09:37:39.758Z,5.57
2022-07-26T09:40:09.051Z,5.20
2022-07-26T09:42:36.044Z,5.43
2022-07-26T09:45:14.658Z,5.65
2022-07-26T09:47:41.655Z,5.38
2022-07-26T09:50:12.881Z,5.13
2022-07-26T09:52:39.835Z,4.35
2022-07-26T09:55:08.390Z,4.85
2022-07-26T09:57:35.391Z,4.13
2022-07-26T10:00:05.726Z,4.40
2022-07-26T10:02:34.698Z,3.95
2022-07-26T10:05:01.592Z,4.50
2022-07-26T10:07:28.910Z,6.95
2022-07-26T10:10:04.719Z,4.93
2022-07-26T10:12:33.054Z,4.40
2022-07-26T10:15:00.056Z,4.78
2022-07-26T10:17:31.694Z,5.20
2022-07-26T10:20:09.289Z,4.97
2022-07-26T10:22:46.070Z,5.60
2022-07-26T10:25:19.323Z,5.68
2022-07-26T10:27:57.900Z,5.85
2022-07-26T10:30:33.866Z,5.65
2022-07-26T10:33:03.089Z,5.97
2022-07-26T10:35:44.432Z,5.68
2022-07-26T10:38:22.200Z,5.40
2022-07-26T10:40:56.351Z,5.70
2022-07-26T10:43:40.292Z,6.03
2022-07-26T10:46:18.079Z,5.32
2022-07-26T10:48:57.211Z,5.75
2022-07-26T10:51:34.271Z,6.15
2022-07-26T10:54:09.903Z,5.68
2022-07-26T10:56:38.142Z,6.07
2022-07-26T10:59:05.993Z,5.32
2022-07-26T11:01:43.175Z,5.63
2022-07-26T11:04:20.404Z,5.93
2022-07-26T11:06:47.411Z,6.50
2022-07-26T11:09:14.368Z,6.53
2022-07-26T11:11:46.454Z,6.30
2022-07-26T11:14:17.610Z,6.82
2022-07-26T11:16:50.434Z,6.30
2022-07-26T11:19:25.912Z,7.00
2022-07-26T11:21:55.737Z,6.40
2022-07-26T11:24:22.555Z,7.20
2022-07-26T11:26:49.451Z,6.85
2022-07-26T11:29:38.420Z,6.80
2022-07-26T11:32:20.084Z,7.47
2022-07-26T11:34:47.940Z,6.97
2022-07-26T11:37:14.784Z,7.65
2022-07-26T11:39:41.568Z,7.15
2022-07-26T11:42:13.597Z,6.50
2022-07-26T11:44:44.512Z,7.30
2022-07-26T11:47:13.631Z,7.47
2022-07-26T11:52:33.492Z,7.43
2022-07-26T11:55:00.284Z,7.45
2022-07-26T11:57:32.021Z,7.22
2022-07-26T12:00:00.086Z,7.67
2022-07-26T12:02:28.680Z,9.98
2022-07-26T12:05:13.926Z,7.30
2022-07-26T12:07:56.757Z,7.38
2022-07-26T12:10:24.270Z,5.57
2022-07-26T12:13:08.678Z,7.03
2022-07-26T12:15:52.770Z,6.80
2022-07-26T12:18:23.753Z,6.75
2022-07-26T12:21:16.994Z,6.88
2022-07-26T12:23:49.422Z,7.30
2022-07-26T12:26:27.728Z,7.05
2022-07-26T12:28:55.945Z,6.13
2022-07-26T12:31:31.608Z,6.25
2022-07-26T12:33:58.900Z,6.93
2022-07-26T12:36:30.024Z,6.43
2022-07-26T12:38:59.608Z,6.22
2022-07-26T12:41:35.797Z,6.38
2022-07-26T12:44:03.726Z,6.28
2022-07-26T12:46:35.485Z,6.50
2022-07-26T12:49:03.337Z,5.95
2022-07-26T12:51:30.184Z,5.90
2022-07-26T12:53:57.289Z,6.13
2022-07-26T12:56:27.082Z,5.55
2022-07-26T12:58:56.350Z,6.28
2022-07-26T13:01:23.409Z,5.55
2022-07-26T13:03:50.234Z,5.22
2022-07-26T13:06:16.992Z,5.75
2022-07-26T13:08:43.944Z,5.50
2022-07-26T13:11:10.725Z,5.57
2022-07-26T13:13:37.500Z,5.22
2022-07-26T13:16:11.215Z,6.10
2022-07-26T13:18:38.759Z,6.45
2022-07-26T13:21:05.908Z,5.75
2022-07-26T13:23:32.679Z,5.75
2022-07-26T13:26:02.732Z,6.40
2022-07-26T13:28:30.458Z,5.80
2022-07-26T13:30:57.580Z,6.57
2022-07-26T13:33:24.372Z,5.70
2022-07-26T13:35:51.402Z,6.07
2022-07-26T13:38:20.238Z,6.65
2022-07-26T13:40:47.116Z,5.65
2022-07-26T13:43:14.715Z,6.00
2022-07-26T13:45:41.667Z,6.85
2022-07-26T13:48:08.700Z,6.20
2022-07-26T13:50:35.697Z,6.68
2022-07-26T13:53:02.852Z,6.65
2022-07-26T13:55:29.605Z,6.55
2022-07-26T13:57:58.129Z,6.03
2022-07-26T14:00:29.435Z,7.43
2022-07-26T14:03:00.135Z,6.82
2022-07-26T14:05:28.004Z,6.82
2022-07-26T14:07:55.368Z,6.70
2022-07-26T14:10:23.528Z,6.70
2022-07-26T14:12:51.256Z,6.80
2022-07-26T14:15:22.642Z,6.13
2022-07-26T14:17:53.580Z,6.80
2022-07-26T14:20:21.610Z,7.43
2022-07-26T14:22:53.095Z,6.15
2022-07-26T14:25:21.279Z,7.47
2022-07-26T14:27:51.925Z,6.97
2022-07-26T14:30:18.956Z,8.27
2022-07-26T14:32:46.988Z,8.63
2022-07-26T14:35:16.544Z,7.85
2022-07-26T14:37:45.576Z,7.57
2022-07-26T14:40:14.630Z,7.57
2022-07-26T14:42:41.675Z,8.10
2022-07-26T14:45:09.689Z,8.13
2022-07-26T14:47:37.237Z,7.53
2022-07-26T14:50:07.539Z,8.85
2022-07-26T14:52:38.641Z,7.50
2022-07-26T14:55:06.431Z,8.35
2022-07-26T14:57:33.442Z,9.45
2022-07-26T15:00:06.630Z,9.07
2022-07-26T15:02:33.703Z,8.32
2022-07-26T15:05:00.622Z,9.30
2022-07-26T15:07:27.640Z,8.63
2022-07-26T15:09:55.150Z,8.20
2022-07-26T15:12:22.009Z,9.55
2022-07-26T15:14:48.853Z,9.68
2022-07-26T15:17:16.037Z,9.65
2022-07-26T15:19:42.839Z,8.88
2022-07-26T15:22:09.862Z,8.15
2022-07-26T15:24:40.006Z,9.15
2022-07-26T15:27:07.707Z,8.45
2022-07-26T15:29:35.979Z,8.57
2022-07-26T15:32:04.298Z,8.63
2022-07-26T15:34:32.057Z,9.23
2022-07-26T15:36:59.694Z,8.82
2022-07-26T15:39:27.731Z,8.18
2022-07-26T15:41:54.758Z,9.38
2022-07-26T15:44:25.630Z,8.70
2022-07-26T15:46:55.813Z,8.82
2022-07-26T15:49:23.384Z,8.73
2022-07-26T15:51:51.504Z,8.43
2022-07-26T15:54:20.431Z,8.52
2022-07-26T15:56:50.325Z,9.00
2022-07-26T15:59:17.084Z,9.32
2022-07-26T16:01:44.052Z,8.48
2022-07-26T16:04:11.221Z,9.13
2022-07-26T16:06:38.586Z,8.77
2022-07-26T16:09:16.535Z,9.57
2022-07-26T16:11:48.149Z,9.85
2022-07-26T16:14:16.445Z,8.68
2022-07-26T16:16:44.455Z,9.68
2022-07-26T16:19:12.222Z,9.15
2022-07-26T16:21:40.460Z,8.80
2022-07-26T16:24:08.102Z,8.45
2022-07-26T16:26:35.629Z,9.15
2022-07-26T16:29:03.617Z,9.85
2022-07-26T16:31:33.956Z,9.65
2022-07-26T16:34:00.924Z,9.60
2022-07-26T16:36:28.675Z,10.10
2022-07-26T16:38:55.516Z,9.98
2022-07-26T16:41:22.290Z,10.52
2022-07-26T16:43:49.565Z,11.15
2022-07-26T16:46:16.764Z,9.93
2022-07-26T16:48:44.042Z,10.93
2022-07-26T16:51:13.447Z,10.88
2022-07-26T16:53:41.026Z,10.88
2022-07-26T16:56:08.176Z,11.45
2022-07-26T16:58:36.743Z,13.25
2022-07-26T17:01:04.773Z,11.55
2022-07-26T17:03:31.703Z,14.45
2022-07-26T17:06:02.898Z,12.90
2022-07-26T17:08:32.624Z,12.57
2022-07-26T17:10:59.924Z,11.68
2022-07-26T17:13:26.923Z,13.32
2022-07-26T17:15:54.300Z,11.93
2022-07-26T17:18:21.362Z,11.90
2022-07-26T17:20:50.973Z,11.52
2022-07-26T17:23:18.535Z,12.93
2022-07-26T17:25:46.321Z,12.30
2022-07-26T17:28:13.438Z,11.98
2022-07-26T17:30:40.385Z,12.35
2022-07-26T17:33:07.405Z,12.63
2022-07-26T17:35:37.016Z,12.95
2022-07-26T17:38:04.685Z,13.10
2022-07-26T17:40:33.824Z,14.07
2022-07-26T17:43:00.723Z,12.30
2022-07-26T17:45:27.698Z,12.57
2022-07-26T17:47:54.782Z,13.82
2022-07-26T17:50:38.182Z,13.50
2022-07-26T17:53:06.065Z,13.13
2022-07-26T17:55:32.964Z,12.38
2022-07-26T17:57:59.909Z,12.63
2022-07-26T18:00:29.098Z,12.60
2022-07-26T18:02:56.913Z,13.50
2022-07-26T18:05:28.623Z,13.52
2022-07-26T18:08:00.194Z,13.25
2022-07-26T18:10:28.193Z,13.57
2022-07-26T18:12:55.197Z,13.02
2022-07-26T18:15:22.274Z,13.40
2022-07-26T18:17:49.090Z,13.45
2022-07-26T18:20:15.939Z,13.60
2022-07-26T18:22:42.866Z,13.98
2022-07-26T18:25:13.833Z,13.80
2022-07-26T18:27:43.405Z,14.90
2022-07-26T18:30:10.555Z,13.82
2022-07-26T18:32:37.477Z,14.20
2022-07-26T18:35:05.963Z,13.88
2022-07-26T18:37:33.055Z,14.27
2022-07-26T18:39:59.907Z,14.27
2022-07-26T18:42:26.960Z,13.98
2022-07-26T18:44:54.176Z,14.30
2022-07-26T18:47:21.320Z,15.25
2022-07-26T18:49:51.657Z,13.90
2022-07-26T18:52:31.634Z,14.90
2022-07-26T18:55:07.834Z,15.13
2022-07-26T18:57:36.045Z,14.93
2022-07-26T19:00:06.277Z,15.73
2022-07-26T19:02:33.192Z,15.65
2022-07-26T19:05:01.187Z,14.40
2022-07-26T19:07:28.187Z,15.07
2022-07-26T19:09:58.358Z,16.17
2022-07-26T19:12:27.380Z,14.98
2022-07-26T19:14:54.435Z,15.65
2022-07-26T19:17:21.603Z,16.52
2022-07-26T19:19:48.617Z,16.95
2022-07-26T19:22:15.477Z,16.17
2022-07-26T19:24:42.286Z,17.92
2022-07-26T19:27:09.641Z,16.52
2022-07-26T19:29:37.218Z,16.15
2022-07-26T19:32:04.942Z,16.15
2022-07-26T19:34:31.938Z,15.30
2022-07-26T19:36:58.958Z,15.73
2022-07-26T19:39:25.781Z,16.73
2022-07-26T19:41:53.039Z,17.95
2022-07-26T19:44:19.974Z,16.50
2022-07-26T19:46:47.509Z,15.90
2022-07-26T19:49:16.976Z,15.63
2022-07-26T19:51:44.926Z,15.48
2022-07-26T19:54:11.798Z,15.10
2022-07-26T19:56:40.028Z,15.00
2022-07-26T19:59:06.798Z,15.32
2022-07-26T20:01:33.760Z,14.45
2022-07-26T20:04:02.960Z,13.27
2022-07-26T20:06:29.870Z,13.45
2022-07-26T20:08:56.759Z,12.65
2022-07-26T20:11:24.941Z,13.38
2022-07-26T20:13:51.884Z,13.13
2022-07-26T20:16:18.987Z,12.65
2022-07-26T20:18:46.001Z,13.05
2022-07-26T20:21:12.734Z,14.93
2022-07-26T20:23:39.714Z,13.02
2022-07-26T20:26:06.719Z,12.70
2022-07-26T20:28:33.509Z,12.68
2022-07-26T20:31:00.619Z,12.40
2022-07-26T20:33:27.621Z,11.57
2022-07-26T20:35:55.315Z,11.70
2022-07-26T20:38:23.096Z,11.95
2022-07-26T20:40:50.054Z,11.70
2022-07-26T20:43:17.438Z,11.13
2022-07-26T20:45:44.431Z,11.05
2022-07-26T20:48:11.500Z,11.90
2022-07-26T20:50:38.558Z,10.25
2022-07-26T20:53:05.487Z,9.88
2022-07-26T20:55:32.666Z,10.82
2022-07-26T20:57:59.398Z,9.75
2022-07-26T21:00:27.272Z,10.02
2022-07-26T21:02:54.505Z,9.40
2022-07-26T21:05:21.420Z,9.57
2022-07-26T21:07:55.770Z,8.80
2022-07-26T21:10:27.502Z,8.77
2022-07-26T21:12:57.253Z,9.75
2022-07-26T21:15:24.229Z,10.77
2022-07-26T21:17:52.489Z,10.90
2022-07-26T21:20:19.632Z,9.25
2022-07-26T21:22:46.751Z,9.95
2022-07-26T21:25:14.156Z,9.30
2022-07-26T21:27:41.289Z,9.35
2022-07-26T21:30:08.796Z,8.90
2022-07-26T21:32:35.872Z,8.32
2022-07-26T21:35:03.063Z,8.30
2022-07-26T21:37:30.033Z,7.78
2022-07-26T21:39:57.089Z,8.15
2022-07-26T21:42:28.224Z,7.43
2022-07-26T21:44:54.958Z,8.27
2022-07-26T21:47:21.993Z,7.65
2022-07-26T21:49:49.536Z,8.20
2022-07-26T21:52:16.322Z,7.78
2022-07-26T21:54:43.332Z,7.97
2022-07-26T21:57:10.157Z,7.47
2022-07-26T21:59:36.916Z,6.97
2022-07-26T22:02:04.001Z,6.95
2022-07-26T22:04:30.922Z,6.45
2022-07-26T22:06:57.874Z,7.30
2022-07-26T22:09:24.892Z,7.78
2022-07-26T22:11:52.965Z,7.28
2022-07-26T22:14:19.908Z,6.07
2022-07-26T22:16:49.795Z,6.57
2022-07-26T22:19:16.586Z,6.30
2022-07-26T22:21:43.445Z,6.28
2022-07-26T22:24:10.404Z,6.72
2022-07-26T22:26:37.233Z,7.13
2022-07-26T22:29:04.105Z,6.55
2022-07-26T22:31:31.192Z,5.82
2022-07-26T22:33:58.010Z,6.07
2022-07-26T22:36:24.740Z,5.82
2022-07-26T22:38:51.740Z,6.82
2022-07-26T22:41:18.708Z,5.88
2022-07-26T22:43:45.561Z,5.00
2022-07-26T22:46:12.568Z,5.93
2022-07-26T22:48:42.167Z,5.10
2022-07-26T22:51:11.182Z,5.18
2022-07-26T22:53:38.139Z,5.05
2022-07-26T22:56:05.246Z,5.25
2022-07-26T22:58:32.057Z,5.10
2022-07-26T23:00:59.204Z,4.93
2022-07-26T23:03:26.104Z,5.25
2022-07-26T23:05:55.532Z,5.15
2022-07-26T23:08:46.863Z,5.13
2022-07-26T23:11:09.217Z,5.28
2022-07-26T23:13:36.356Z,5.25
2022-07-26T23:16:03.330Z,4.97
2022-07-26T23:18:30.879Z,5.00
2022-07-26T23:20:58.047Z,5.25
2022-07-26T23:23:28.538Z,5.35
2022-07-26T23:25:57.207Z,4.90
2022-07-26T23:28:36.249Z,4.95
2022-07-26T23:31:06.508Z,4.90
2022-07-26T23:33:51.892Z,4.80
2022-07-26T23:36:21.512Z,4.88
2022-07-26T23:38:48.490Z,4.60
2022-07-26T23:41:15.270Z,4.85
2022-07-26T23:43:42.005Z,4.75
2022-07-26T23:46:09.041Z,4.53
2022-07-26T23:48:35.823Z,4.88
2022-07-26T23:51:02.622Z,4.53
2022-07-26T23:53:29.575Z,4.47
2022-07-26T23:55:56.333Z,4.07
2022-07-26T23:58:23.279Z,4.55
